sensor_id;sensor_type;location;lat;lon;timestamp;pressure;altitude;pressure_sealevel;temperature;humidity
15932;BME280;8065;49.520;11.284;2023-04-23T00:00:00;96771.31;;;19.60;65.00
15932;BME280;8065;49.520;11.284;2023-04-23T00:02:28;96766.66;;;19.68;65.18
15932;BME280;8065;49.520;11.284;2023-04-23T00:05:01;96767.88;;;19.59;64.87
15932;BME280;8065;49.520;11.284;2023-04-23T00:07:31;96770.97;;;19.58;65.07
15932;BME280;8065;49.520;11.284;2023-04-23T00:10:00;96773.25;;;19.63;64.90
15932;BME280;8065;49.520;11.284;2023-04-23T00:12:28;96778.22;;;19.68;64.74
15932;BME280;8065;49.520;11.284;2023-04-23T00:14:55;96781.66;;;19.72;64.52
15932;BME280;8065;49.520;11.284;2023-04-23T00:17:21;96780.50;;;19.73;64.38
15932;BME280;8065;49.520;11.284;2023-04-23T00:19:48;96762.78;;;19.72;64.38
15932;BME280;8065;49.520;11.284;2023-04-23T00:22:15;96766.31;;;19.62;65.19
15932;BME280;8065;49.520;11.284;2023-04-23T00:24:44;96765.53;;;19.65;65.22
15932;BME280;8065;49.520;11.284;2023-04-23T00:27:12;96758.63;;;19.60;65.34
15932;BME280;8065;49.520;11.284;2023-04-23T00:29:38;96755.94;;;19.57;65.44
15932;BME280;8065;49.520;11.284;2023-04-23T00:32:05;96763.25;;;19.60;65.56
15932;BME280;8065;49.520;11.284;2023-04-23T00:34:32;96752.84;;;19.58;65.44
15932;BME280;8065;49.520;11.284;2023-04-23T00:36:58;96762.50;;;19.52;65.47
15932;BME280;8065;49.520;11.284;2023-04-23T00:39:24;96764.41;;;19.55;65.00
15932;BME280;8065;49.520;11.284;2023-04-23T00:41:51;96762.13;;;19.54;64.81
15932;BME280;8065;49.520;11.284;2023-04-23T00:44:19;96768.66;;;19.53;64.81
15932;BME280;8065;49.520;11.284;2023-04-23T00:46:45;96776.34;;;19.51;65.13
15932;BME280;8065;49.520;11.284;2023-04-23T00:49:13;96769.44;;;19.46;65.00
15932;BME280;8065;49.520;11.284;2023-04-23T00:51:40;96774.09;;;19.39;65.54
15932;BME280;8065;49.520;11.284;2023-04-23T00:54:06;96766.41;;;19.41;65.75
15932;BME280;8065;49.520;11.284;2023-04-23T00:56:33;96777.19;;;19.37;65.65
15932;BME280;8065;49.520;11.284;2023-04-23T00:59:00;96768.75;;;19.31;65.93
15932;BME280;8065;49.520;11.284;2023-04-23T01:01:28;96767.59;;;19.29;66.14
15932;BME280;8065;49.520;11.284;2023-04-23T01:03:55;96772.63;;;19.27;66.46
15932;BME280;8065;49.520;11.284;2023-04-23T01:06:22;96770.31;;;19.25;66.11
15932;BME280;8065;49.520;11.284;2023-04-23T01:08:49;96769.22;;;19.12;66.88
15932;BME280;8065;49.520;11.284;2023-04-23T01:11:15;96760.75;;;19.10;67.10
15932;BME280;8065;49.520;11.284;2023-04-23T01:13:42;96756.59;;;18.98;67.41
15932;BME280;8065;49.520;11.284;2023-04-23T01:16:09;96753.53;;;18.93;67.70
15932;BME280;8065;49.520;11.284;2023-04-23T01:18:37;96751.28;;;18.74;68.87
15932;BME280;8065;49.520;11.284;2023-04-23T01:21:05;96758.19;;;18.75;68.93
15932;BME280;8065;49.520;11.284;2023-04-23T01:23:33;96755.50;;;18.71;69.03
15932;BME280;8065;49.520;11.284;2023-04-23T01:26:00;96759.72;;;18.76;69.38
15932;BME280;8065;49.520;11.284;2023-04-23T01:28:27;96765.09;;;18.83;69.06
15932;BME280;8065;49.520;11.284;2023-04-23T01:30:54;96767.41;;;18.81;68.34
15932;BME280;8065;49.520;11.284;2023-04-23T01:33:22;96765.50;;;18.74;68.13
15932;BME280;8065;49.520;11.284;2023-04-23T01:35:48;96763.97;;;18.70;68.12
15932;BME280;8065;49.520;11.284;2023-04-23T01:38:16;96762.03;;;18.74;68.08
15932;BME280;8065;49.520;11.284;2023-04-23T01:40:43;96770.50;;;18.76;67.55
15932;BME280;8065;49.520;11.284;2023-04-23T01:43:10;96757.44;;;18.74;66.93
15932;BME280;8065;49.520;11.284;2023-04-23T01:45:36;96765.13;;;18.76;67.26
15932;BME280;8065;49.520;11.284;2023-04-23T01:48:03;96758.56;;;18.77;67.01
15932;BME280;8065;49.520;11.284;2023-04-23T01:50:30;96758.97;;;18.79;66.85
15932;BME280;8065;49.520;11.284;2023-04-23T01:52:57;96762.03;;;18.81;66.94
15932;BME280;8065;49.520;11.284;2023-04-23T01:55:23;96760.50;;;18.80;66.67
15932;BME280;8065;49.520;11.284;2023-04-23T01:57:51;96761.66;;;18.79;66.83
15932;BME280;8065;49.520;11.284;2023-04-23T02:00:18;96768.56;;;18.80;66.49
15932;BME280;8065;49.520;11.284;2023-04-23T02:02:45;96773.56;;;18.78;66.78
15932;BME280;8065;49.520;11.284;2023-04-23T02:05:13;96763.59;;;18.75;66.74
15932;BME280;8065;49.520;11.284;2023-04-23T02:07:40;96763.19;;;18.73;66.90
15932;BME280;8065;49.520;11.284;2023-04-23T02:10:09;96763.97;;;18.70;66.89
15932;BME280;8065;49.520;11.284;2023-04-23T02:12:35;96761.28;;;18.66;66.81
15932;BME280;8065;49.520;11.284;2023-04-23T02:15:06;96761.28;;;18.70;66.52
15932;BME280;8065;49.520;11.284;2023-04-23T02:17:33;96762.44;;;18.69;66.91
15932;BME280;8065;49.520;11.284;2023-04-23T02:19:59;96757.81;;;18.69;66.93
15932;BME280;8065;49.520;11.284;2023-04-23T02:22:26;96764.75;;;18.66;67.05
15932;BME280;8065;49.520;11.284;2023-04-23T02:24:53;96760.16;;;18.63;67.26
15932;BME280;8065;49.520;11.284;2023-04-23T02:27:20;96769.75;;;18.64;67.59
15932;BME280;8065;49.520;11.284;2023-04-23T02:29:47;96772.81;;;18.52;68.34
15932;BME280;8065;49.520;11.284;2023-04-23T02:32:15;96775.13;;;18.57;68.11
15932;BME280;8065;49.520;11.284;2023-04-23T02:34:42;96778.19;;;18.56;68.00
15932;BME280;8065;49.520;11.284;2023-04-23T02:37:08;96782.03;;;18.51;68.25
15932;BME280;8065;49.520;11.284;2023-04-23T02:39:35;96782.81;;;18.52;68.24
15932;BME280;8065;49.520;11.284;2023-04-23T02:42:03;96775.91;;;18.47;68.37
15932;BME280;8065;49.520;11.284;2023-04-23T02:44:29;96786.66;;;18.47;68.39
15932;BME280;8065;49.520;11.284;2023-04-23T02:46:56;96784.34;;;18.49;68.50
15932;BME280;8065;49.520;11.284;2023-04-23T02:49:23;96783.97;;;18.47;68.50
15932;BME280;8065;49.520;11.284;2023-04-23T02:51:50;96799.72;;;18.45;68.50
15932;BME280;8065;49.520;11.284;2023-04-23T02:54:16;96792.81;;;18.41;68.37
15932;BME280;8065;49.520;11.284;2023-04-23T02:56:43;96791.66;;;18.38;68.43
15932;BME280;8065;49.520;11.284;2023-04-23T02:59:10;96790.50;;;18.39;68.61
15932;BME280;8065;49.520;11.284;2023-04-23T03:01:36;96791.66;;;18.38;68.66
15932;BME280;8065;49.520;11.284;2023-04-23T03:04:03;96806.66;;;18.28;68.82
15932;BME280;8065;49.520;11.284;2023-04-23T03:06:30;96800.50;;;18.35;68.88
15932;BME280;8065;49.520;11.284;2023-04-23T03:08:58;96797.81;;;18.28;69.15
15932;BME280;8065;49.520;11.284;2023-04-23T03:11:25;96802.81;;;18.26;69.54
15932;BME280;8065;49.520;11.284;2023-04-23T03:13:51;96800.13;;;18.26;69.98
15932;BME280;8065;49.520;11.284;2023-04-23T03:16:17;96797.44;;;18.26;70.32
15932;BME280;8065;49.520;11.284;2023-04-23T03:18:44;96796.66;;;18.22;70.71
15932;BME280;8065;49.520;11.284;2023-04-23T03:21:10;96790.53;;;18.11;71.94
15932;BME280;8065;49.520;11.284;2023-04-23T03:23:38;96791.31;;;18.18;71.82
15932;BME280;8065;49.520;11.284;2023-04-23T03:26:05;96793.22;;;18.07;73.02
15932;BME280;8065;49.520;11.284;2023-04-23T03:28:31;96798.22;;;18.16;72.93
15932;BME280;8065;49.520;11.284;2023-04-23T03:30:58;96792.84;;;18.12;72.94
15932;BME280;8065;49.520;11.284;2023-04-23T03:33:24;96800.50;;;18.03;73.77
15932;BME280;8065;49.520;11.284;2023-04-23T03:35:50;96802.06;;;18.04;73.46
15932;BME280;8065;49.520;11.284;2023-04-23T03:38:17;96805.91;;;18.03;73.08
15932;BME280;8065;49.520;11.284;2023-04-23T03:40:45;96809.72;;;17.91;73.41
15932;BME280;8065;49.520;11.284;2023-04-23T03:43:11;96813.56;;;17.90;73.52
15932;BME280;8065;49.520;11.284;2023-04-23T03:45:38;96817.41;;;17.89;72.97
15932;BME280;8065;49.520;11.284;2023-04-23T03:48:04;96808.53;;;17.82;73.27
15932;BME280;8065;49.520;11.284;2023-04-23T03:50:31;96831.16;;;17.70;73.73
15932;BME280;8065;49.520;11.284;2023-04-23T03:53:03;96830.81;;;17.75;73.46
15932;BME280;8065;49.520;11.284;2023-04-23T03:55:29;96832.34;;;17.76;73.06
15932;BME280;8065;49.520;11.284;2023-04-23T03:57:57;96830.03;;;17.75;73.13
15932;BME280;8065;49.520;11.284;2023-04-23T04:00:25;96832.72;;;17.75;72.82
15932;BME280;8065;49.520;11.284;2023-04-23T04:02:52;96831.56;;;17.72;73.02
15932;BME280;8065;49.520;11.284;2023-04-23T04:05:19;96827.31;;;17.67;72.87
15932;BME280;8065;49.520;11.284;2023-04-23T04:07:45;96834.19;;;17.65;73.13
15932;BME280;8065;49.520;11.284;2023-04-23T04:10:12;96834.94;;;17.55;73.25
15932;BME280;8065;49.520;11.284;2023-04-23T04:12:38;96835.31;;;17.53;73.18
15932;BME280;8065;49.520;11.284;2023-04-23T04:15:08;96838.75;;;17.54;73.16
15932;BME280;8065;49.520;11.284;2023-04-23T04:17:35;96845.66;;;17.48;73.69
15932;BME280;8065;49.520;11.284;2023-04-23T04:20:01;96845.66;;;17.48;73.43
15932;BME280;8065;49.520;11.284;2023-04-23T04:22:28;96848.72;;;17.50;73.13
15932;BME280;8065;49.520;11.284;2023-04-23T04:24:54;96848.28;;;17.33;73.65
15932;BME280;8065;49.520;11.284;2023-04-23T04:27:21;96850.97;;;17.33;73.88
15932;BME280;8065;49.520;11.284;2023-04-23T04:29:48;96849.44;;;17.32;73.65
15932;BME280;8065;49.520;11.284;2023-04-23T04:32:17;96851.69;;;17.23;74.21
15932;BME280;8065;49.520;11.284;2023-04-23T04:34:43;96849.06;;;17.30;73.96
15932;BME280;8065;49.520;11.284;2023-04-23T04:37:11;96861.72;;;17.30;73.99
15932;BME280;8065;49.520;11.284;2023-04-23T04:39:37;96852.50;;;17.34;73.70
15932;BME280;8065;49.520;11.284;2023-04-23T04:42:04;96848.66;;;17.35;73.74
15932;BME280;8065;49.520;11.284;2023-04-23T04:44:31;96845.63;;;17.41;73.65
15932;BME280;8065;49.520;11.284;2023-04-23T04:46:58;96850.22;;;17.40;73.43
15932;BME280;8065;49.520;11.284;2023-04-23T04:49:26;96850.16;;;17.22;74.11
15932;BME280;8065;49.520;11.284;2023-04-23T04:51:52;96857.03;;;17.16;74.23
15932;BME280;8065;49.520;11.284;2023-04-23T04:54:19;96863.94;;;17.17;74.60
15932;BME280;8065;49.520;11.284;2023-04-23T04:56:46;96853.28;;;17.31;73.92
15932;BME280;8065;49.520;11.284;2023-04-23T04:59:12;96859.00;;;17.23;74.51
15932;BME280;8065;49.520;11.284;2023-04-23T05:01:39;96863.97;;;17.24;74.63
15932;BME280;8065;49.520;11.284;2023-04-23T05:04:05;96875.88;;;17.23;74.53
15932;BME280;8065;49.520;11.284;2023-04-23T05:06:33;96877.38;;;17.17;75.22
15932;BME280;8065;49.520;11.284;2023-04-23T05:08:59;96880.81;;;17.18;75.58
15932;BME280;8065;49.520;11.284;2023-04-23T05:11:26;96880.84;;;17.21;75.28
15932;BME280;8065;49.520;11.284;2023-04-23T05:13:52;96880.00;;;17.10;75.77
15932;BME280;8065;49.520;11.284;2023-04-23T05:16:19;96879.22;;;17.06;76.45
15932;BME280;8065;49.520;11.284;2023-04-23T05:18:45;96888.41;;;17.05;76.22
15932;BME280;8065;49.520;11.284;2023-04-23T05:21:13;96896.72;;;16.86;77.30
15932;BME280;8065;49.520;11.284;2023-04-23T05:23:41;96895.25;;;16.95;76.75
15932;BME280;8065;49.520;11.284;2023-04-23T05:26:08;96887.22;;;16.99;77.24
15932;BME280;8065;49.520;11.284;2023-04-23T05:28:35;96888.31;;;16.91;77.55
15932;BME280;8065;49.520;11.284;2023-04-23T05:31:01;96895.28;;;16.99;77.24
15932;BME280;8065;49.520;11.284;2023-04-23T05:33:28;96891.44;;;17.00;77.35
15932;BME280;8065;49.520;11.284;2023-04-23T05:35:56;96903.16;;;16.74;78.72
15932;BME280;8065;49.520;11.284;2023-04-23T05:38:23;96894.72;;;16.76;79.56
15932;BME280;8065;49.520;11.284;2023-04-23T05:40:51;96900.50;;;16.78;79.37
15932;BME280;8065;49.520;11.284;2023-04-23T05:43:17;96904.75;;;16.82;79.16
15932;BME280;8065;49.520;11.284;2023-04-23T05:45:44;96901.63;;;16.77;79.91
15932;BME280;8065;49.520;11.284;2023-04-23T05:48:10;96911.19;;;16.74;80.56
15932;BME280;8065;49.520;11.284;2023-04-23T05:50:37;96908.94;;;16.80;79.78
15932;BME280;8065;49.520;11.284;2023-04-23T05:53:03;96915.09;;;16.84;80.04
15932;BME280;8065;49.520;11.284;2023-04-23T05:55:30;96915.00;;;16.69;81.46
15932;BME280;8065;49.520;11.284;2023-04-23T05:57:58;96918.81;;;16.68;81.02
15932;BME280;8065;49.520;11.284;2023-04-23T06:00:25;96904.88;;;16.56;82.11
15932;BME280;8065;49.520;11.284;2023-04-23T06:02:51;96915.75;;;16.66;81.15
15932;BME280;8065;49.520;11.284;2023-04-23T06:05:18;96907.28;;;16.64;81.67
15932;BME280;8065;49.520;11.284;2023-04-23T06:07:44;96920.75;;;16.71;81.91
15932;BME280;8065;49.520;11.284;2023-04-23T06:10:11;96923.44;;;16.71;81.84
15932;BME280;8065;49.520;11.284;2023-04-23T06:12:37;96934.63;;;16.81;81.65
15932;BME280;8065;49.520;11.284;2023-04-23T06:15:08;96935.34;;;16.74;82.06
15932;BME280;8065;49.520;11.284;2023-04-23T06:17:36;96939.53;;;16.71;82.19
15932;BME280;8065;49.520;11.284;2023-04-23T06:20:03;96938.00;;;16.70;82.83
15932;BME280;8065;49.520;11.284;2023-04-23T06:22:30;96942.56;;;16.66;83.13
15932;BME280;8065;49.520;11.284;2023-04-23T06:24:56;96936.88;;;16.75;82.84
15932;BME280;8065;49.520;11.284;2023-04-23T06:27:23;96933.50;;;16.82;83.04
15932;BME280;8065;49.520;11.284;2023-04-23T06:29:49;96934.25;;;16.79;82.54
15932;BME280;8065;49.520;11.284;2023-04-23T06:32:18;96933.50;;;16.82;82.85
15932;BME280;8065;49.520;11.284;2023-04-23T06:34:44;96926.22;;;16.82;82.90
15932;BME280;8065;49.520;11.284;2023-04-23T06:37:11;96927.41;;;16.88;82.97
15932;BME280;8065;49.520;11.284;2023-04-23T06:39:37;96934.31;;;16.89;83.74
15932;BME280;8065;49.520;11.284;2023-04-23T06:42:04;96932.69;;;16.78;84.58
15932;BME280;8065;49.520;11.284;2023-04-23T06:44:30;96931.56;;;16.79;84.49
15932;BME280;8065;49.520;11.284;2023-04-23T06:46:57;96932.53;;;16.63;85.27
15932;BME280;8065;49.520;11.284;2023-04-23T06:49:24;96932.63;;;16.70;84.81
15932;BME280;8065;49.520;11.284;2023-04-23T06:51:51;96927.94;;;16.64;84.94
15932;BME280;8065;49.520;11.284;2023-04-23T06:54:17;96927.06;;;16.49;85.56
15932;BME280;8065;49.520;11.284;2023-04-23T06:56:44;96927.13;;;16.56;84.96
15932;BME280;8065;49.520;11.284;2023-04-23T06:59:10;96925.56;;;16.55;85.24
15932;BME280;8065;49.520;11.284;2023-04-23T07:01:37;96917.91;;;16.54;85.53
15932;BME280;8065;49.520;11.284;2023-04-23T07:04:03;96922.84;;;16.52;85.75
15932;BME280;8065;49.520;11.284;2023-04-23T07:06:31;96914.00;;;16.44;86.37
15932;BME280;8065;49.520;11.284;2023-04-23T07:08:58;96917.84;;;16.47;86.50
15932;BME280;8065;49.520;11.284;2023-04-23T07:11:25;96919.66;;;16.35;86.96
15932;BME280;8065;49.520;11.284;2023-04-23T07:13:51;96917.69;;;16.29;86.96
15932;BME280;8065;49.520;11.284;2023-04-23T07:16:18;96915.41;;;16.31;86.95
15932;BME280;8065;49.520;11.284;2023-04-23T07:18:46;96915.09;;;16.36;87.06
15932;BME280;8065;49.520;11.284;2023-04-23T07:21:13;96905.91;;;16.37;86.65
15932;BME280;8065;49.520;11.284;2023-04-23T07:23:41;96914.47;;;16.13;87.91
15932;BME280;8065;49.520;11.284;2023-04-23T07:26:07;96917.22;;;16.20;87.47
15932;BME280;8065;49.520;11.284;2023-04-23T07:28:34;96919.16;;;16.23;87.90
15932;BME280;8065;49.520;11.284;2023-04-23T07:31:01;96910.16;;;16.42;87.12
15932;BME280;8065;49.520;11.284;2023-04-23T07:33:27;96915.56;;;16.45;86.24
15932;BME280;8065;49.520;11.284;2023-04-23T07:35:54;96912.00;;;16.34;86.98
15932;BME280;8065;49.520;11.284;2023-04-23T07:38:21;96912.38;;;16.32;87.28
15932;BME280;8065;49.520;11.284;2023-04-23T07:40:48;96919.72;;;16.39;87.21
15932;BME280;8065;49.520;11.284;2023-04-23T07:43:15;96921.28;;;16.47;86.91
15932;BME280;8065;49.520;11.284;2023-04-23T07:45:42;96914.78;;;16.48;86.79
15932;BME280;8065;49.520;11.284;2023-04-23T07:48:08;96913.94;;;16.37;87.27
15932;BME280;8065;49.520;11.284;2023-04-23T07:50:35;96913.97;;;16.41;86.88
15932;BME280;8065;49.520;11.284;2023-04-23T07:53:02;96910.97;;;16.49;87.08
15932;BME280;8065;49.520;11.284;2023-04-23T07:55:28;96906.44;;;16.57;86.51
15932;BME280;8065;49.520;11.284;2023-04-23T07:57:56;96902.56;;;16.54;86.97
15932;BME280;8065;49.520;11.284;2023-04-23T08:00:23;96909.59;;;16.66;86.23
15932;BME280;8065;49.520;11.284;2023-04-23T08:02:50;96898.25;;;16.87;85.88
15932;BME280;8065;49.520;11.284;2023-04-23T08:05:18;96896.03;;;16.96;86.22
15932;BME280;8065;49.520;11.284;2023-04-23T08:07:44;96896.97;;;17.21;84.76
15932;BME280;8065;49.520;11.284;2023-04-23T08:10:11;96903.88;;;17.22;84.76
15932;BME280;8065;49.520;11.284;2023-04-23T08:12:37;96895.06;;;17.25;83.40
15932;BME280;8065;49.520;11.284;2023-04-23T08:15:06;96893.97;;;17.41;82.65
15932;BME280;8065;49.520;11.284;2023-04-23T08:17:32;96882.34;;;17.15;83.14
15932;BME280;8065;49.520;11.284;2023-04-23T08:19:59;96894.63;;;17.16;83.13
15932;BME280;8065;49.520;11.284;2023-04-23T08:22:25;96886.25;;;17.28;81.63
15932;BME280;8065;49.520;11.284;2023-04-23T08:24:52;96887.78;;;17.26;82.40
15932;BME280;8065;49.520;11.284;2023-04-23T08:27:19;96877.84;;;17.41;82.22
15932;BME280;8065;49.520;11.284;2023-04-23T08:29:45;96877.44;;;17.28;82.60
15932;BME280;8065;49.520;11.284;2023-04-23T08:32:13;96882.78;;;17.24;82.14
15932;BME280;8065;49.520;11.284;2023-04-23T08:34:40;96873.22;;;17.34;81.89
15932;BME280;8065;49.520;11.284;2023-04-23T08:37:06;96874.78;;;17.38;81.51
15932;BME280;8065;49.520;11.284;2023-04-23T08:39:33;96889.34;;;17.37;81.43
15932;BME280;8065;49.520;11.284;2023-04-23T08:42:04;96885.50;;;17.35;81.68
15932;BME280;8065;49.520;11.284;2023-04-23T08:44:32;96889.25;;;17.16;83.24
15932;BME280;8065;49.520;11.284;2023-04-23T08:47:03;96885.78;;;17.12;82.81
15932;BME280;8065;49.520;11.284;2023-04-23T08:49:33;96891.91;;;17.13;83.29
15932;BME280;8065;49.520;11.284;2023-04-23T08:52:08;96883.16;;;17.23;83.56
15932;BME280;8065;49.520;11.284;2023-04-23T08:54:37;96890.50;;;17.40;83.46
15932;BME280;8065;49.520;11.284;2023-04-23T08:57:07;96887.00;;;17.25;83.11
15932;BME280;8065;49.520;11.284;2023-04-23T08:59:35;96891.53;;;17.14;84.21
15932;BME280;8065;49.520;11.284;2023-04-23T09:02:02;96884.75;;;17.42;82.71
15932;BME280;8065;49.520;11.284;2023-04-23T09:04:35;96895.22;;;17.61;82.42
15932;BME280;8065;49.520;11.284;2023-04-23T09:07:02;96887.78;;;17.29;81.08
15932;BME280;8065;49.520;11.284;2023-04-23T09:09:29;96892.84;;;17.49;80.59
15932;BME280;8065;49.520;11.284;2023-04-23T09:11:56;96894.91;;;17.73;79.67
15932;BME280;8065;49.520;11.284;2023-04-23T09:14:23;96895.59;;;17.63;80.56
15932;BME280;8065;49.520;11.284;2023-04-23T09:16:50;96893.34;;;17.68;80.55
15932;BME280;8065;49.520;11.284;2023-04-23T09:19:18;96887.22;;;17.68;79.11
15932;BME280;8065;49.520;11.284;2023-04-23T09:21:45;96886.38;;;17.57;78.50
15932;BME280;8065;49.520;11.284;2023-04-23T09:24:12;96882.63;;;17.72;77.39
15932;BME280;8065;49.520;11.284;2023-04-23T09:26:44;96881.84;;;17.68;77.04
15932;BME280;8065;49.520;11.284;2023-04-23T09:29:12;96879.44;;;17.56;78.42
15932;BME280;8065;49.520;11.284;2023-04-23T09:31:41;96884.47;;;17.64;78.14
15932;BME280;8065;49.520;11.284;2023-04-23T09:34:08;96879.53;;;17.70;78.07
15932;BME280;8065;49.520;11.284;2023-04-23T09:36:36;96878.81;;;17.80;78.16
15932;BME280;8065;49.520;11.284;2023-04-23T09:39:10;96872.25;;;17.71;79.54
15932;BME280;8065;49.520;11.284;2023-04-23T09:41:37;96869.94;;;17.73;79.54
15932;BME280;8065;49.520;11.284;2023-04-23T09:44:04;96874.16;;;17.66;80.03
15932;BME280;8065;49.520;11.284;2023-04-23T09:46:32;96865.72;;;17.68;80.50
15932;BME280;8065;49.520;11.284;2023-04-23T09:49:00;96866.84;;;17.67;80.00
15932;BME280;8065;49.520;11.284;2023-04-23T09:51:28;96863.34;;;17.63;77.88
15932;BME280;8065;49.520;11.284;2023-04-23T09:53:55;96865.31;;;17.66;77.49
15932;BME280;8065;49.520;11.284;2023-04-23T09:56:23;96864.97;;;17.75;76.18
15932;BME280;8065;49.520;11.284;2023-04-23T09:58:49;96861.88;;;17.69;74.54
15932;BME280;8065;49.520;11.284;2023-04-23T10:01:16;96854.22;;;17.71;74.90
15932;BME280;8065;49.520;11.284;2023-04-23T10:03:43;96869.59;;;17.81;74.50
15932;BME280;8065;49.520;11.284;2023-04-23T10:06:12;96856.53;;;17.76;74.42
15932;BME280;8065;49.520;11.284;2023-04-23T10:08:39;96847.75;;;17.93;74.44
15932;BME280;8065;49.520;11.284;2023-04-23T10:11:06;96837.75;;;17.97;74.06
15932;BME280;8065;49.520;11.284;2023-04-23T10:13:34;96840.47;;;18.05;73.58
15932;BME280;8065;49.520;11.284;2023-04-23T10:16:03;96841.25;;;18.16;73.76
15932;BME280;8065;49.520;11.284;2023-04-23T10:18:31;96845.84;;;18.33;73.94
15932;BME280;8065;49.520;11.284;2023-04-23T10:20:59;96847.38;;;18.23;74.16
15932;BME280;8065;49.520;11.284;2023-04-23T10:23:26;96852.38;;;18.28;74.34
15932;BME280;8065;49.520;11.284;2023-04-23T10:25:53;96855.44;;;18.23;74.83
15932;BME280;8065;49.520;11.284;2023-04-23T10:28:21;96855.84;;;18.32;75.12
15932;BME280;8065;49.520;11.284;2023-04-23T10:30:55;96839.69;;;18.32;74.75
15932;BME280;8065;49.520;11.284;2023-04-23T10:33:23;96849.69;;;18.35;74.61
15932;BME280;8065;49.520;11.284;2023-04-23T10:35:52;96838.16;;;18.42;74.52
15932;BME280;8065;49.520;11.284;2023-04-23T10:38:19;96836.63;;;18.55;74.25
15932;BME280;8065;49.520;11.284;2023-04-23T10:40:49;96839.72;;;18.75;74.01
15932;BME280;8065;49.520;11.284;2023-04-23T10:43:17;96835.84;;;18.94;73.51
15932;BME280;8065;49.520;11.284;2023-04-23T10:45:44;96837.31;;;19.16;73.17
15932;BME280;8065;49.520;11.284;2023-04-23T10:48:13;96828.03;;;19.24;71.97
15932;BME280;8065;49.520;11.284;2023-04-23T10:50:39;96828.81;;;19.28;71.66
15932;BME280;8065;49.520;11.284;2023-04-23T10:53:17;96826.47;;;19.38;71.33
15932;BME280;8065;49.520;11.284;2023-04-23T10:55:45;96819.50;;;19.44;71.82
15932;BME280;8065;49.520;11.284;2023-04-23T10:58:12;96824.16;;;19.40;69.96
15932;BME280;8065;49.520;11.284;2023-04-23T11:00:44;96817.97;;;19.43;69.01
15932;BME280;8065;49.520;11.284;2023-04-23T11:03:28;96813.56;;;18.79;69.18
15932;BME280;8065;49.520;11.284;2023-04-23T11:05:55;96821.53;;;19.11;68.11
15932;BME280;8065;49.520;11.284;2023-04-23T11:08:21;96810.28;;;19.41;67.72
15932;BME280;8065;49.520;11.284;2023-04-23T11:10:53;96807.47;;;19.70;68.15
15932;BME280;8065;49.520;11.284;2023-04-23T11:13:22;96801.41;;;20.14;67.17
15932;BME280;8065;49.520;11.284;2023-04-23T11:16:11;96797.09;;;20.20;65.60
15932;BME280;8065;49.520;11.284;2023-04-23T11:19:01;96798.53;;;19.83;65.32
15932;BME280;8065;49.520;11.284;2023-04-23T11:22:00;96791.59;;;20.34;64.72
15932;BME280;8065;49.520;11.284;2023-04-23T11:24:28;96788.69;;;20.63;63.32
15932;BME280;8065;49.520;11.284;2023-04-23T11:26:56;96784.53;;;20.88;62.74
15932;BME280;8065;49.520;11.284;2023-04-23T11:29:25;96784.44;;;20.99;62.54
15932;BME280;8065;49.520;11.284;2023-04-23T11:31:52;96779.31;;;21.08;62.88
15932;BME280;8065;49.520;11.284;2023-04-23T11:34:21;96768.38;;;21.19;61.28
15932;BME280;8065;49.520;11.284;2023-04-23T11:36:50;96772.00;;;21.05;61.05
15932;BME280;8065;49.520;11.284;2023-04-23T11:39:16;96765.66;;;21.19;61.53
15932;BME280;8065;49.520;11.284;2023-04-23T11:41:44;96760.03;;;21.06;61.67
15932;BME280;8065;49.520;11.284;2023-04-23T11:44:12;96759.91;;;20.83;62.33
15932;BME280;8065;49.520;11.284;2023-04-23T11:46:38;96751.19;;;21.02;62.09
15932;BME280;8065;49.520;11.284;2023-04-23T11:49:05;96751.13;;;21.09;62.76
15932;BME280;8065;49.520;11.284;2023-04-23T11:51:40;96750.38;;;20.75;62.60
15932;BME280;8065;49.520;11.284;2023-04-23T11:54:07;96748.13;;;21.00;61.89
15932;BME280;8065;49.520;11.284;2023-04-23T11:56:33;96741.06;;;21.10;61.73
15932;BME280;8065;49.520;11.284;2023-04-23T11:59:01;96738.09;;;21.01;60.74
15932;BME280;8065;49.520;11.284;2023-04-23T12:01:43;96739.25;;;20.69;61.18
15932;BME280;8065;49.520;11.284;2023-04-23T12:04:11;96742.94;;;20.82;60.12
15932;BME280;8065;49.520;11.284;2023-04-23T12:06:41;96732.91;;;20.83;59.86
15932;BME280;8065;49.520;11.284;2023-04-23T12:09:08;96734.75;;;20.55;60.38
15932;BME280;8065;49.520;11.284;2023-04-23T12:11:36;96725.78;;;20.21;60.44
15932;BME280;8065;49.520;11.284;2023-04-23T12:14:03;96724.91;;;20.38;60.05
15932;BME280;8065;49.520;11.284;2023-04-23T12:16:37;96727.38;;;20.59;60.85
15932;BME280;8065;49.520;11.284;2023-04-23T12:19:07;96733.88;;;20.66;59.80
15932;BME280;8065;49.520;11.284;2023-04-23T12:21:34;96735.72;;;20.31;60.29
15932;BME280;8065;49.520;11.284;2023-04-23T12:24:03;96729.31;;;20.59;59.60
15932;BME280;8065;49.520;11.284;2023-04-23T12:26:30;96729.22;;;20.70;59.86
15932;BME280;8065;49.520;11.284;2023-04-23T12:28:58;96735.47;;;20.59;59.74
15932;BME280;8065;49.520;11.284;2023-04-23T12:31:26;96720.91;;;20.53;59.56
15932;BME280;8065;49.520;11.284;2023-04-23T12:33:56;96714.25;;;20.17;60.88
15932;BME280;8065;49.520;11.284;2023-04-23T12:36:26;96708.19;;;20.50;60.05
15932;BME280;8065;49.520;11.284;2023-04-23T12:39:26;96700.97;;;20.78;59.98
15932;BME280;8065;49.520;11.284;2023-04-23T12:41:55;96700.59;;;20.76;59.76
15932;BME280;8065;49.520;11.284;2023-04-23T12:44:24;96700.31;;;20.97;60.14
15932;BME280;8065;49.520;11.284;2023-04-23T12:46:54;96696.31;;;21.09;60.07
15932;BME280;8065;49.520;11.284;2023-04-23T12:49:21;96686.44;;;21.29;59.81
15932;BME280;8065;49.520;11.284;2023-04-23T12:51:48;96685.19;;;20.73;59.67
15932;BME280;8065;49.520;11.284;2023-04-23T12:54:14;96681.22;;;20.81;59.13
15932;BME280;8065;49.520;11.284;2023-04-23T12:56:43;96666.78;;;21.25;58.78
15932;BME280;8065;49.520;11.284;2023-04-23T12:59:10;96676.09;;;21.20;58.71
15932;BME280;8065;49.520;11.284;2023-04-23T13:01:36;96674.94;;;20.91;57.45